NWS250 UWKD-ULLI
Flight info
| Callsign | NWS250 |
|---|---|
| Flight time | 1h 57m |
| Altitude | 34000 |
| Route | APTAR L158 IRGOS T613 DOGOB M864 ELMOD L4 NUDKO T561 ODATI T875 GENPA |
| Aircraft | A321/M-SDE3FGHIRWY/LB1 |
Departure
| Time | 2026-05-07 08:10 |
|---|---|
| Airport | Kazan International Airport (UWKD) |
Arrival
| Time | 2026-05-07 10:07 |
|---|---|
| Airport | Pulkovo Airport (ULLI) |
| Time | Latitude | Longitude | Altitude | Speed | Heading |
|---|---|---|---|---|---|
| 2026-05-07 07:39 | 55.60653 | 49.29734 | 416 ft | 0 kts | 35° |
| 2026-05-07 08:04 | 55.60657 | 49.29739 | 416 ft | 1 kts | 35° |
| 2026-05-07 08:05 | 55.60668 | 49.29753 | 411 ft | 3 kts | 35° |
| 2026-05-07 08:05 | 55.60681 | 49.29775 | 416 ft | 4 kts | 57° |
| 2026-05-07 08:05 | 55.60674 | 49.29835 | 413 ft | 6 kts | 118° |
| 2026-05-07 08:05 | 55.60631 | 49.29951 | 410 ft | 11 kts | 125° |
| 2026-05-07 08:06 | 55.60585 | 49.30064 | 414 ft | 12 kts | 127° |
| 2026-05-07 08:06 | 55.60506 | 49.30059 | 407 ft | 14 kts | 213° |
| 2026-05-07 08:06 | 55.60421 | 49.29958 | 416 ft | 15 kts | 214° |
| 2026-05-07 08:06 | 55.60360 | 49.29895 | 416 ft | 15 kts | 204° |
| 2026-05-07 08:07 | 55.60253 | 49.29892 | 416 ft | 16 kts | 162° |
| 2026-05-07 08:07 | 55.60152 | 49.29976 | 416 ft | 16 kts | 154° |
| 2026-05-07 08:07 | 55.60047 | 49.30067 | 412 ft | 17 kts | 154° |
| 2026-05-07 08:07 | 55.59944 | 49.30127 | 413 ft | 14 kts | 181° |
| 2026-05-07 08:08 | 55.59857 | 49.30048 | 410 ft | 15 kts | 216° |
| 2026-05-07 08:08 | 55.59817 | 49.29974 | 410 ft | 5 kts | 258° |
| 2026-05-07 08:08 | 55.59826 | 49.29934 | 413 ft | 3 kts | 302° |
| 2026-05-07 08:08 | 55.59830 | 49.29925 | 416 ft | 0 kts | 305° |
| 2026-05-07 08:09 | 55.59835 | 49.29912 | 416 ft | 14 kts | 305° |
| 2026-05-07 08:09 | 55.60035 | 49.29399 | 410 ft | 85 kts | 305° |
| 2026-05-07 08:09 | 55.60487 | 49.28237 | 410 ft | 142 kts | 304° |
| 2026-05-07 08:09 | 55.61131 | 49.26566 | 439 ft | 183 kts | 307° |
| 2026-05-07 08:10 | 55.61758 | 49.24574 | 945 ft | 188 kts | 285° |
| 2026-05-07 08:10 | 55.61659 | 49.22246 | 1611 ft | 195 kts | 255° |
| 2026-05-07 08:10 | 55.61134 | 49.20028 | 2319 ft | 196 kts | 247° |
| 2026-05-07 08:10 | 55.60526 | 49.17856 | 2867 ft | 198 kts | 246° |
| 2026-05-07 08:11 | 55.59929 | 49.15666 | 3564 ft | 195 kts | 249° |
| 2026-05-07 08:11 | 55.59677 | 49.13306 | 3948 ft | 202 kts | 278° |
| 2026-05-07 08:11 | 55.59868 | 49.10781 | 4150 ft | 219 kts | 281° |
| 2026-05-07 08:11 | 55.60114 | 49.07993 | 4346 ft | 242 kts | 282° |
| 2026-05-07 08:12 | 55.60392 | 49.04908 | 4668 ft | 261 kts | 281° |
| 2026-05-07 08:12 | 55.60678 | 49.01722 | 5364 ft | 264 kts | 281° |
| 2026-05-07 08:12 | 55.60964 | 48.98506 | 6115 ft | 265 kts | 281° |
| 2026-05-07 08:12 | 55.61243 | 48.95277 | 6846 ft | 266 kts | 281° |
| 2026-05-07 08:13 | 55.61517 | 48.92026 | 7545 ft | 268 kts | 280° |
| 2026-05-07 08:13 | 55.61791 | 48.88749 | 8237 ft | 270 kts | 280° |
| 2026-05-07 08:13 | 55.62066 | 48.85444 | 8976 ft | 273 kts | 279° |
| 2026-05-07 08:13 | 55.62339 | 48.82153 | 9707 ft | 275 kts | 279° |
| 2026-05-07 08:14 | 55.62619 | 48.78780 | 10291 ft | 283 kts | 279° |
| 2026-05-07 08:14 | 55.62919 | 48.75154 | 10448 ft | 306 kts | 279° |
| 2026-05-07 08:14 | 55.63232 | 48.71341 | 10580 ft | 328 kts | 279° |
| 2026-05-07 08:14 | 55.63565 | 48.67255 | 10895 ft | 340 kts | 279° |
| 2026-05-07 08:15 | 55.63900 | 48.63077 | 11451 ft | 345 kts | 278° |
| 2026-05-07 08:15 | 55.64237 | 48.58848 | 12053 ft | 349 kts | 278° |
| 2026-05-07 08:15 | 55.64580 | 48.54569 | 12664 ft | 353 kts | 278° |
| 2026-05-07 08:15 | 55.64930 | 48.50241 | 13287 ft | 357 kts | 278° |
| 2026-05-07 08:16 | 55.65279 | 48.45870 | 13869 ft | 360 kts | 278° |
| 2026-05-07 08:16 | 55.65625 | 48.41518 | 14402 ft | 364 kts | 278° |
| 2026-05-07 08:16 | 55.65979 | 48.37064 | 14951 ft | 367 kts | 278° |
| 2026-05-07 08:16 | 55.66335 | 48.32568 | 15492 ft | 370 kts | 278° |
| 2026-05-07 08:17 | 55.66689 | 48.28034 | 16043 ft | 374 kts | 278° |
| 2026-05-07 08:17 | 55.67044 | 48.23453 | 16608 ft | 377 kts | 278° |
| 2026-05-07 08:17 | 55.67400 | 48.18837 | 17162 ft | 380 kts | 278° |
| 2026-05-07 08:17 | 55.67758 | 48.14176 | 17708 ft | 383 kts | 278° |
| 2026-05-07 08:18 | 55.68116 | 48.09474 | 18246 ft | 386 kts | 278° |
| 2026-05-07 08:18 | 55.68477 | 48.04735 | 18731 ft | 389 kts | 278° |
| 2026-05-07 08:18 | 55.68836 | 48.00032 | 19219 ft | 392 kts | 278° |
| 2026-05-07 08:18 | 55.69201 | 47.95223 | 19697 ft | 395 kts | 278° |
| 2026-05-07 08:19 | 55.69565 | 47.90387 | 20183 ft | 397 kts | 278° |
| 2026-05-07 08:19 | 55.69928 | 47.85515 | 20661 ft | 400 kts | 278° |
| 2026-05-07 08:19 | 55.70290 | 47.80614 | 21122 ft | 402 kts | 277° |
| 2026-05-07 08:19 | 55.70651 | 47.75685 | 21574 ft | 404 kts | 277° |
| 2026-05-07 08:20 | 55.71014 | 47.70721 | 22029 ft | 407 kts | 277° |
| 2026-05-07 08:20 | 55.71375 | 47.65734 | 22465 ft | 409 kts | 277° |
| 2026-05-07 08:20 | 55.71737 | 47.60722 | 22904 ft | 411 kts | 277° |
| 2026-05-07 08:20 | 55.72095 | 47.55745 | 23328 ft | 413 kts | 277° |
| 2026-05-07 08:21 | 55.72458 | 47.50670 | 23719 ft | 416 kts | 277° |
| 2026-05-07 08:21 | 55.72823 | 47.45566 | 24070 ft | 418 kts | 277° |
| 2026-05-07 08:21 | 55.73187 | 47.40433 | 24411 ft | 420 kts | 277° |
| 2026-05-07 08:21 | 55.73552 | 47.35281 | 24768 ft | 422 kts | 277° |
| 2026-05-07 08:22 | 55.73919 | 47.30097 | 25108 ft | 424 kts | 277° |
| 2026-05-07 08:22 | 55.74287 | 47.24885 | 25452 ft | 426 kts | 277° |
| 2026-05-07 08:22 | 55.74651 | 47.19654 | 25793 ft | 428 kts | 277° |
| 2026-05-07 08:22 | 55.75011 | 47.14394 | 26125 ft | 430 kts | 277° |
| 2026-05-07 08:23 | 55.75363 | 47.09177 | 26447 ft | 432 kts | 276° |
| 2026-05-07 08:23 | 55.75717 | 47.03863 | 26775 ft | 434 kts | 276° |
| 2026-05-07 08:23 | 55.76075 | 46.98522 | 27102 ft | 436 kts | 276° |
| 2026-05-07 08:23 | 55.76434 | 46.93160 | 27420 ft | 438 kts | 276° |
| 2026-05-07 08:24 | 55.76792 | 46.87778 | 27728 ft | 440 kts | 276° |
| 2026-05-07 08:24 | 55.77150 | 46.82367 | 28044 ft | 442 kts | 276° |
| 2026-05-07 08:24 | 55.77507 | 46.76929 | 28361 ft | 444 kts | 276° |
| 2026-05-07 08:24 | 55.77861 | 46.71473 | 28666 ft | 446 kts | 276° |
| 2026-05-07 08:25 | 55.78211 | 46.66056 | 28967 ft | 448 kts | 276° |
| 2026-05-07 08:25 | 55.78562 | 46.60547 | 29345 ft | 448 kts | 276° |
| 2026-05-07 08:25 | 55.78908 | 46.55049 | 29792 ft | 447 kts | 276° |
| 2026-05-07 08:25 | 55.79251 | 46.49560 | 30202 ft | 446 kts | 276° |
| 2026-05-07 08:26 | 55.80025 | 46.38642 | 30926 ft | 444 kts | 278° |
| 2026-05-07 08:26 | 55.80504 | 46.33233 | 31317 ft | 443 kts | 279° |
| 2026-05-07 08:26 | 55.81012 | 46.27844 | 31689 ft | 441 kts | 279° |
| 2026-05-07 08:27 | 55.81521 | 46.22477 | 32066 ft | 440 kts | 279° |
| 2026-05-07 08:27 | 55.82007 | 46.17189 | 32436 ft | 438 kts | 278° |
| 2026-05-07 08:27 | 55.82478 | 46.11844 | 32800 ft | 437 kts | 278° |
| 2026-05-07 08:27 | 55.82933 | 46.06505 | 33164 ft | 435 kts | 278° |
| 2026-05-07 08:28 | 55.83377 | 46.01193 | 33530 ft | 434 kts | 278° |
| 2026-05-07 08:28 | 55.83815 | 45.95893 | 33885 ft | 433 kts | 278° |
| 2026-05-07 08:28 | 55.84252 | 45.90594 | 33997 ft | 431 kts | 278° |
| 2026-05-07 08:28 | 55.84687 | 45.85324 | 34002 ft | 429 kts | 278° |
| 2026-05-07 08:29 | 55.85550 | 45.74834 | 34003 ft | 428 kts | 278° |
| 2026-05-07 08:29 | 55.86396 | 45.64428 | 34009 ft | 427 kts | 277° |
| 2026-05-07 08:30 | 55.87244 | 45.53967 | 34008 ft | 427 kts | 277° |
| 2026-05-07 08:30 | 55.88080 | 45.43512 | 34004 ft | 426 kts | 277° |
| 2026-05-07 08:31 | 55.88905 | 45.33054 | 34018 ft | 426 kts | 277° |
| 2026-05-07 08:31 | 55.89716 | 45.22661 | 34021 ft | 426 kts | 277° |
| 2026-05-07 08:32 | 55.90521 | 45.12199 | 34026 ft | 426 kts | 277° |
| 2026-05-07 08:32 | 55.91312 | 45.01739 | 34030 ft | 426 kts | 277° |
| 2026-05-07 08:33 | 55.92102 | 44.91280 | 34022 ft | 426 kts | 277° |
| 2026-05-07 08:33 | 55.92882 | 44.80826 | 34020 ft | 425 kts | 276° |
| 2026-05-07 08:34 | 55.93649 | 44.70448 | 34015 ft | 425 kts | 276° |
| 2026-05-07 08:34 | 55.94412 | 44.60003 | 34014 ft | 425 kts | 276° |
| 2026-05-07 08:35 | 55.95163 | 44.49555 | 34008 ft | 424 kts | 276° |
| 2026-05-07 08:35 | 55.95902 | 44.39118 | 34008 ft | 424 kts | 276° |
| 2026-05-07 08:36 | 55.96625 | 44.28759 | 34012 ft | 423 kts | 276° |
| 2026-05-07 08:36 | 55.97349 | 44.18335 | 34001 ft | 423 kts | 276° |
| 2026-05-07 08:37 | 55.98065 | 44.07908 | 34010 ft | 423 kts | 276° |
| 2026-05-07 08:37 | 55.98767 | 43.97496 | 33996 ft | 422 kts | 275° |
| 2026-05-07 08:38 | 55.99456 | 43.87154 | 33998 ft | 422 kts | 275° |
| 2026-05-07 08:38 | 56.00137 | 43.76751 | 34004 ft | 421 kts | 275° |
| 2026-05-07 08:39 | 56.00809 | 43.66361 | 33995 ft | 421 kts | 275° |
| 2026-05-07 08:39 | 56.01474 | 43.55973 | 33995 ft | 421 kts | 275° |
| 2026-05-07 08:40 | 56.02128 | 43.45583 | 33995 ft | 420 kts | 275° |
| 2026-05-07 08:40 | 56.02765 | 43.35275 | 33987 ft | 420 kts | 275° |
| 2026-05-07 08:41 | 56.03165 | 43.24868 | 33984 ft | 419 kts | 270° |
| 2026-05-07 08:41 | 56.03276 | 43.14456 | 33997 ft | 419 kts | 269° |
| 2026-05-07 08:42 | 56.03359 | 43.04040 | 33983 ft | 419 kts | 270° |
| 2026-05-07 08:42 | 56.03487 | 42.93699 | 33987 ft | 419 kts | 270° |
| 2026-05-07 08:43 | 56.03649 | 42.83291 | 33990 ft | 419 kts | 270° |
| 2026-05-07 08:43 | 56.03800 | 42.72884 | 33984 ft | 418 kts | 270° |
| 2026-05-07 08:44 | 56.03936 | 42.62482 | 33984 ft | 418 kts | 270° |
| 2026-05-07 08:44 | 56.04048 | 42.52158 | 33985 ft | 418 kts | 269° |
| 2026-05-07 08:45 | 56.04125 | 42.41765 | 33981 ft | 418 kts | 269° |
| 2026-05-07 08:45 | 56.04173 | 42.31370 | 33978 ft | 418 kts | 269° |
| 2026-05-07 08:46 | 56.04213 | 42.20985 | 33976 ft | 418 kts | 269° |
| 2026-05-07 08:46 | 56.04251 | 42.10603 | 33976 ft | 417 kts | 269° |
| 2026-05-07 08:47 | 56.04283 | 42.00293 | 33973 ft | 417 kts | 269° |
| 2026-05-07 08:47 | 56.04304 | 41.89912 | 33972 ft | 417 kts | 269° |
| 2026-05-07 08:48 | 56.04322 | 41.79533 | 33966 ft | 417 kts | 269° |
| 2026-05-07 08:48 | 56.04333 | 41.69224 | 33965 ft | 417 kts | 268° |
| 2026-05-07 08:49 | 56.04324 | 41.58858 | 33962 ft | 417 kts | 268° |
| 2026-05-07 08:49 | 56.04305 | 41.48477 | 33960 ft | 417 kts | 268° |
| 2026-05-07 08:50 | 56.04285 | 41.38117 | 33957 ft | 417 kts | 268° |
| 2026-05-07 08:50 | 56.04256 | 41.27818 | 33954 ft | 417 kts | 268° |
| 2026-05-07 08:51 | 56.04222 | 41.17454 | 33954 ft | 416 kts | 268° |
| 2026-05-07 08:51 | 56.04180 | 41.07110 | 33947 ft | 416 kts | 268° |
| 2026-05-07 08:52 | 56.04123 | 40.96756 | 33944 ft | 416 kts | 268° |
| 2026-05-07 08:52 | 56.04052 | 40.86409 | 33945 ft | 416 kts | 268° |
| 2026-05-07 08:53 | 56.03974 | 40.76140 | 33941 ft | 416 kts | 268° |
| 2026-05-07 08:53 | 56.03894 | 40.65810 | 33938 ft | 416 kts | 268° |
| 2026-05-07 08:54 | 56.03807 | 40.55479 | 33939 ft | 415 kts | 268° |
| 2026-05-07 08:54 | 56.03708 | 40.45155 | 33932 ft | 415 kts | 267° |
| 2026-05-07 08:55 | 56.03601 | 40.34910 | 33933 ft | 415 kts | 267° |
| 2026-05-07 08:55 | 56.03484 | 40.24598 | 33925 ft | 415 kts | 267° |
| 2026-05-07 08:56 | 56.03363 | 40.14274 | 33919 ft | 415 kts | 267° |
| 2026-05-07 08:56 | 56.03230 | 40.04025 | 33921 ft | 415 kts | 267° |
| 2026-05-07 08:57 | 56.03084 | 39.93699 | 33914 ft | 416 kts | 267° |
| 2026-05-07 08:57 | 56.02929 | 39.83369 | 33911 ft | 416 kts | 267° |
| 2026-05-07 08:58 | 56.02770 | 39.73027 | 33909 ft | 416 kts | 267° |
| 2026-05-07 08:58 | 56.02602 | 39.62687 | 33905 ft | 416 kts | 267° |
| 2026-05-07 08:59 | 56.02443 | 39.52402 | 33903 ft | 417 kts | 267° |
| 2026-05-07 08:59 | 56.02291 | 39.42043 | 33898 ft | 417 kts | 267° |
| 2026-05-07 09:00 | 56.02129 | 39.31685 | 33896 ft | 417 kts | 267° |
| 2026-05-07 09:00 | 56.01948 | 39.21319 | 33896 ft | 417 kts | 267° |
| 2026-05-07 09:01 | 56.01760 | 39.11014 | 33892 ft | 418 kts | 267° |
| 2026-05-07 09:01 | 56.01568 | 39.00641 | 33891 ft | 418 kts | 267° |
| 2026-05-07 09:02 | 56.01366 | 38.90268 | 33886 ft | 418 kts | 267° |
| 2026-05-07 09:02 | 56.01150 | 38.79898 | 33884 ft | 418 kts | 267° |
| 2026-05-07 09:03 | 56.00930 | 38.69600 | 33890 ft | 417 kts | 266° |
| 2026-05-07 09:03 | 56.00702 | 38.59236 | 33880 ft | 417 kts | 266° |
| 2026-05-07 09:04 | 56.00468 | 38.48880 | 33883 ft | 417 kts | 266° |
| 2026-05-07 09:04 | 56.00218 | 38.38532 | 33888 ft | 417 kts | 266° |
| 2026-05-07 09:05 | 55.99959 | 38.28254 | 33890 ft | 417 kts | 266° |
| 2026-05-07 09:05 | 55.99689 | 38.17922 | 33886 ft | 416 kts | 266° |
| 2026-05-07 09:06 | 55.99422 | 38.07585 | 33885 ft | 416 kts | 266° |
| 2026-05-07 09:06 | 55.99148 | 37.97268 | 33889 ft | 416 kts | 266° |
| 2026-05-07 09:07 | 55.98857 | 37.87026 | 33899 ft | 415 kts | 266° |
| 2026-05-07 09:07 | 55.98550 | 37.76727 | 33904 ft | 415 kts | 266° |
| 2026-05-07 09:08 | 55.98255 | 37.66443 | 33912 ft | 415 kts | 266° |
| 2026-05-07 09:08 | 55.97958 | 37.56158 | 33915 ft | 414 kts | 266° |
| 2026-05-07 09:09 | 55.97647 | 37.45959 | 33917 ft | 414 kts | 266° |
| 2026-05-07 09:09 | 55.97621 | 37.35702 | 33913 ft | 415 kts | 277° |
| 2026-05-07 09:10 | 55.99418 | 37.25906 | 33919 ft | 420 kts | 296° |
| 2026-05-07 09:10 | 56.02818 | 37.17354 | 33911 ft | 423 kts | 303° |
| 2026-05-07 09:11 | 56.06341 | 37.08997 | 33904 ft | 423 kts | 303° |
| 2026-05-07 09:11 | 56.09876 | 37.00575 | 33905 ft | 423 kts | 303° |
| 2026-05-07 09:12 | 56.13451 | 36.92210 | 33901 ft | 423 kts | 303° |
| 2026-05-07 09:12 | 56.17031 | 36.83853 | 33902 ft | 422 kts | 303° |
| 2026-05-07 09:13 | 56.20562 | 36.75536 | 33903 ft | 421 kts | 303° |
| 2026-05-07 09:13 | 56.24095 | 36.67153 | 33908 ft | 420 kts | 303° |
| 2026-05-07 09:14 | 56.27617 | 36.58777 | 33908 ft | 420 kts | 303° |
| 2026-05-07 09:14 | 56.31129 | 36.50398 | 33911 ft | 419 kts | 303° |
| 2026-05-07 09:15 | 56.34605 | 36.42068 | 33915 ft | 418 kts | 302° |
| 2026-05-07 09:15 | 56.37322 | 36.32975 | 33916 ft | 410 kts | 288° |
| 2026-05-07 09:16 | 56.39352 | 36.23364 | 33915 ft | 409 kts | 288° |
| 2026-05-07 09:16 | 56.41386 | 36.13771 | 33917 ft | 409 kts | 288° |
| 2026-05-07 09:17 | 56.43378 | 36.04330 | 33894 ft | 399 kts | 288° |
| 2026-05-07 09:17 | 56.45694 | 35.95216 | 33895 ft | 402 kts | 299° |
| 2026-05-07 09:18 | 56.49184 | 35.87223 | 33898 ft | 406 kts | 305° |
| 2026-05-07 09:18 | 56.52814 | 35.79384 | 33891 ft | 406 kts | 305° |
| 2026-05-07 09:19 | 56.56405 | 35.71577 | 33899 ft | 406 kts | 305° |
| 2026-05-07 09:19 | 56.60004 | 35.63683 | 33912 ft | 406 kts | 304° |
| 2026-05-07 09:20 | 56.63604 | 35.55781 | 33915 ft | 406 kts | 304° |
| 2026-05-07 09:20 | 56.67204 | 35.47871 | 33922 ft | 406 kts | 304° |
| 2026-05-07 09:21 | 56.70768 | 35.39999 | 33926 ft | 406 kts | 304° |
| 2026-05-07 09:21 | 56.74353 | 35.32060 | 33919 ft | 405 kts | 304° |
| 2026-05-07 09:22 | 56.77917 | 35.24127 | 33923 ft | 405 kts | 304° |
| 2026-05-07 09:22 | 56.81489 | 35.16166 | 33923 ft | 405 kts | 304° |
| 2026-05-07 09:23 | 56.85024 | 35.08271 | 33929 ft | 404 kts | 304° |
| 2026-05-07 09:23 | 56.88575 | 35.00300 | 33933 ft | 404 kts | 304° |
| 2026-05-07 09:24 | 56.92553 | 34.92942 | 33929 ft | 414 kts | 317° |
| 2026-05-07 09:24 | 56.97393 | 34.87129 | 33928 ft | 416 kts | 320° |
| 2026-05-07 09:25 | 57.02210 | 34.81365 | 33935 ft | 416 kts | 320° |
| 2026-05-07 09:25 | 57.07057 | 34.75539 | 33936 ft | 416 kts | 320° |
| 2026-05-07 09:26 | 57.11896 | 34.69700 | 33938 ft | 416 kts | 320° |
| 2026-05-07 09:26 | 57.16729 | 34.63856 | 33939 ft | 415 kts | 320° |
| 2026-05-07 09:27 | 57.21518 | 34.58050 | 33942 ft | 415 kts | 320° |
| 2026-05-07 09:28 | 57.28744 | 34.49262 | 33946 ft | 414 kts | 320° |
| 2026-05-07 09:28 | 57.33544 | 34.43394 | 33949 ft | 413 kts | 320° |
| 2026-05-07 09:29 | 57.38336 | 34.37517 | 33955 ft | 413 kts | 319° |
| 2026-05-07 09:29 | 57.43091 | 34.31678 | 33954 ft | 412 kts | 319° |
| 2026-05-07 09:30 | 57.47870 | 34.25800 | 33952 ft | 412 kts | 319° |
| 2026-05-07 09:30 | 57.52645 | 34.19901 | 33960 ft | 412 kts | 319° |
| 2026-05-07 09:31 | 57.57411 | 34.14000 | 33960 ft | 411 kts | 319° |
| 2026-05-07 09:31 | 57.62134 | 34.08111 | 33957 ft | 412 kts | 319° |
| 2026-05-07 09:32 | 57.66901 | 34.02148 | 33937 ft | 413 kts | 319° |
| 2026-05-07 09:32 | 57.71681 | 33.96148 | 33936 ft | 414 kts | 318° |
| 2026-05-07 09:33 | 57.76468 | 33.90120 | 33949 ft | 415 kts | 318° |
| 2026-05-07 09:33 | 57.81239 | 33.84114 | 33955 ft | 416 kts | 318° |
| 2026-05-07 09:34 | 57.86041 | 33.78042 | 33964 ft | 416 kts | 318° |
| 2026-05-07 09:34 | 57.90691 | 33.71649 | 33968 ft | 412 kts | 314° |
| 2026-05-07 09:35 | 57.95068 | 33.64843 | 33976 ft | 411 kts | 312° |
| 2026-05-07 09:35 | 57.99455 | 33.57951 | 33974 ft | 411 kts | 313° |
| 2026-05-07 09:36 | 58.03889 | 33.51132 | 33982 ft | 411 kts | 313° |
| 2026-05-07 09:36 | 58.08340 | 33.44338 | 33979 ft | 411 kts | 313° |
| 2026-05-07 09:37 | 58.12779 | 33.37534 | 33987 ft | 410 kts | 313° |
| 2026-05-07 09:37 | 58.17171 | 33.30756 | 33991 ft | 410 kts | 313° |
| 2026-05-07 09:38 | 58.21581 | 33.23918 | 33996 ft | 409 kts | 313° |
| 2026-05-07 09:38 | 58.25983 | 33.17079 | 33999 ft | 409 kts | 313° |
| 2026-05-07 09:39 | 58.30386 | 33.10249 | 34003 ft | 408 kts | 313° |
| 2026-05-07 09:39 | 58.34746 | 33.03444 | 33994 ft | 408 kts | 312° |
| 2026-05-07 09:40 | 58.39123 | 32.96567 | 33999 ft | 408 kts | 312° |
| 2026-05-07 09:40 | 58.43498 | 32.89683 | 34002 ft | 408 kts | 312° |
| 2026-05-07 09:41 | 58.47870 | 32.82791 | 34008 ft | 407 kts | 312° |
| 2026-05-07 09:41 | 58.52202 | 32.75934 | 34010 ft | 407 kts | 312° |
| 2026-05-07 09:42 | 58.56563 | 32.69014 | 34016 ft | 407 kts | 312° |
| 2026-05-07 09:42 | 58.60918 | 32.62091 | 34024 ft | 407 kts | 312° |
| 2026-05-07 09:43 | 58.65262 | 32.55137 | 34021 ft | 406 kts | 311° |
| 2026-05-07 09:43 | 58.69565 | 32.48222 | 34026 ft | 406 kts | 312° |
| 2026-05-07 09:44 | 58.73901 | 32.41249 | 34025 ft | 406 kts | 311° |
| 2026-05-07 09:44 | 58.78225 | 32.34265 | 34029 ft | 406 kts | 311° |
| 2026-05-07 09:45 | 58.82560 | 32.27253 | 33365 ft | 412 kts | 311° |
| 2026-05-07 09:45 | 58.84772 | 32.23647 | 32462 ft | 417 kts | 311° |
| 2026-05-07 09:45 | 58.86993 | 32.20030 | 31693 ft | 419 kts | 311° |
| 2026-05-07 09:45 | 58.89225 | 32.16398 | 30962 ft | 420 kts | 311° |
| 2026-05-07 09:46 | 58.91423 | 32.12815 | 30467 ft | 416 kts | 311° |
| 2026-05-07 09:46 | 58.93624 | 32.09228 | 29962 ft | 412 kts | 310° |
| 2026-05-07 09:46 | 58.95802 | 32.05669 | 29425 ft | 407 kts | 310° |
| 2026-05-07 09:46 | 58.97944 | 32.02163 | 28941 ft | 401 kts | 310° |
| 2026-05-07 09:47 | 59.00056 | 31.98697 | 28441 ft | 395 kts | 310° |
| 2026-05-07 09:47 | 59.02137 | 31.95270 | 27966 ft | 390 kts | 310° |
| 2026-05-07 09:47 | 59.04189 | 31.91878 | 27497 ft | 385 kts | 310° |
| 2026-05-07 09:47 | 59.06184 | 31.88567 | 27027 ft | 380 kts | 310° |
| 2026-05-07 09:48 | 59.08185 | 31.85249 | 26569 ft | 376 kts | 310° |
| 2026-05-07 09:48 | 59.10087 | 31.81845 | 26119 ft | 366 kts | 304° |
| 2026-05-07 09:48 | 59.11690 | 31.78085 | 25674 ft | 357 kts | 297° |
| 2026-05-07 09:48 | 59.13087 | 31.74020 | 25240 ft | 364 kts | 296° |
| 2026-05-07 09:49 | 59.14492 | 31.69905 | 24797 ft | 366 kts | 296° |
| 2026-05-07 09:49 | 59.15907 | 31.65786 | 24367 ft | 366 kts | 296° |
| 2026-05-07 09:49 | 59.17322 | 31.61674 | 23922 ft | 365 kts | 297° |
| 2026-05-07 09:49 | 59.18717 | 31.57631 | 23470 ft | 364 kts | 297° |
| 2026-05-07 09:50 | 59.20124 | 31.53546 | 23009 ft | 362 kts | 297° |
| 2026-05-07 09:50 | 59.21524 | 31.49462 | 22573 ft | 361 kts | 297° |
| 2026-05-07 09:50 | 59.22916 | 31.45393 | 22133 ft | 359 kts | 297° |
| 2026-05-07 09:50 | 59.24301 | 31.41340 | 21691 ft | 358 kts | 297° |
| 2026-05-07 09:51 | 59.25675 | 31.37302 | 21273 ft | 356 kts | 297° |
| 2026-05-07 09:51 | 59.27040 | 31.33269 | 20840 ft | 355 kts | 297° |
| 2026-05-07 09:51 | 59.28398 | 31.29249 | 20417 ft | 354 kts | 297° |
| 2026-05-07 09:51 | 59.29752 | 31.25232 | 19988 ft | 353 kts | 297° |
| 2026-05-07 09:52 | 59.31082 | 31.21286 | 19561 ft | 351 kts | 297° |
| 2026-05-07 09:52 | 59.32425 | 31.17299 | 19148 ft | 350 kts | 297° |
| 2026-05-07 09:52 | 59.33763 | 31.13319 | 18722 ft | 349 kts | 297° |
| 2026-05-07 09:52 | 59.35096 | 31.09346 | 18309 ft | 348 kts | 297° |
| 2026-05-07 09:53 | 59.36422 | 31.05384 | 17847 ft | 347 kts | 297° |
| 2026-05-07 09:53 | 59.37745 | 31.01426 | 17428 ft | 346 kts | 297° |
| 2026-05-07 09:53 | 59.39063 | 30.97482 | 17009 ft | 345 kts | 298° |
| 2026-05-07 09:53 | 59.40372 | 30.93568 | 16687 ft | 339 kts | 298° |
| 2026-05-07 09:54 | 59.41626 | 30.89830 | 16552 ft | 326 kts | 297° |
| 2026-05-07 09:54 | 59.42852 | 30.86171 | 16422 ft | 314 kts | 297° |
| 2026-05-07 09:54 | 59.44028 | 30.82646 | 16278 ft | 303 kts | 297° |
| 2026-05-07 09:54 | 59.45166 | 30.79217 | 15992 ft | 298 kts | 297° |
| 2026-05-07 09:55 | 59.46287 | 30.75812 | 15634 ft | 295 kts | 297° |
| 2026-05-07 09:55 | 59.47389 | 30.72449 | 15089 ft | 292 kts | 297° |
| 2026-05-07 09:55 | 59.48490 | 30.69094 | 14524 ft | 291 kts | 297° |
| 2026-05-07 09:55 | 59.49583 | 30.65761 | 13988 ft | 289 kts | 297° |
| 2026-05-07 09:56 | 59.50670 | 30.62445 | 13413 ft | 287 kts | 297° |
| 2026-05-07 09:56 | 59.51736 | 30.59191 | 12961 ft | 287 kts | 297° |
| 2026-05-07 09:56 | 59.52820 | 30.55886 | 12502 ft | 289 kts | 298° |
| 2026-05-07 09:56 | 59.53934 | 30.52540 | 11766 ft | 293 kts | 299° |
| 2026-05-07 09:57 | 59.55045 | 30.49248 | 11330 ft | 286 kts | 299° |
| 2026-05-07 09:57 | 59.56143 | 30.46009 | 10814 ft | 283 kts | 300° |
| 2026-05-07 09:57 | 59.57227 | 30.42801 | 10404 ft | 279 kts | 300° |
| 2026-05-07 09:57 | 59.58311 | 30.39584 | 10279 ft | 284 kts | 300° |
| 2026-05-07 09:58 | 59.59409 | 30.36315 | 10139 ft | 285 kts | 300° |
| 2026-05-07 09:58 | 59.60507 | 30.33042 | 9994 ft | 287 kts | 301° |
| 2026-05-07 09:58 | 59.61603 | 30.29773 | 9541 ft | 291 kts | 301° |
| 2026-05-07 09:58 | 59.62712 | 30.26464 | 9159 ft | 290 kts | 301° |
| 2026-05-07 09:59 | 59.63821 | 30.23141 | 8880 ft | 287 kts | 301° |
| 2026-05-07 09:59 | 59.64932 | 30.19802 | 8388 ft | 292 kts | 302° |
| 2026-05-07 09:59 | 59.66032 | 30.16486 | 8115 ft | 288 kts | 302° |
| 2026-05-07 09:59 | 59.67127 | 30.13178 | 7656 ft | 288 kts | 303° |
| 2026-05-07 10:00 | 59.68227 | 30.09858 | 7155 ft | 288 kts | 304° |
| 2026-05-07 10:00 | 59.69324 | 30.06553 | 6720 ft | 287 kts | 304° |
| 2026-05-07 10:00 | 59.70415 | 30.03266 | 6310 ft | 284 kts | 305° |
| 2026-05-07 10:00 | 59.71476 | 30.00059 | 5869 ft | 278 kts | 305° |
| 2026-05-07 10:01 | 59.72543 | 29.96813 | 5497 ft | 283 kts | 305° |
| 2026-05-07 10:01 | 59.73615 | 29.93550 | 5207 ft | 281 kts | 305° |
| 2026-05-07 10:01 | 59.74676 | 29.90322 | 5034 ft | 276 kts | 305° |
| 2026-05-07 10:01 | 59.75770 | 29.87205 | 5003 ft | 274 kts | 314° |
| 2026-05-07 10:02 | 59.77249 | 29.84984 | 4477 ft | 264 kts | 339° |
| 2026-05-07 10:02 | 59.78999 | 29.84153 | 3790 ft | 259 kts | 3° |
| 2026-05-07 10:02 | 59.80740 | 29.84699 | 3396 ft | 256 kts | 24° |
| 2026-05-07 10:02 | 59.82261 | 29.86448 | 3019 ft | 252 kts | 44° |
| 2026-05-07 10:03 | 59.83323 | 29.89071 | 2813 ft | 234 kts | 61° |
| 2026-05-07 10:03 | 59.84128 | 29.91733 | 2665 ft | 219 kts | 60° |
| 2026-05-07 10:03 | 59.84809 | 29.94364 | 2609 ft | 208 kts | 74° |
| 2026-05-07 10:03 | 59.84955 | 29.97153 | 2494 ft | 201 kts | 96° |
| 2026-05-07 10:04 | 59.84619 | 29.99821 | 2521 ft | 196 kts | 105° |
| 2026-05-07 10:04 | 59.84248 | 30.02299 | 2516 ft | 177 kts | 105° |
| 2026-05-07 10:04 | 59.83920 | 30.04524 | 2526 ft | 159 kts | 105° |
| 2026-05-07 10:04 | 59.83626 | 30.06532 | 2519 ft | 146 kts | 104° |
| 2026-05-07 10:05 | 59.83337 | 30.08444 | 2264 ft | 142 kts | 104° |
| 2026-05-07 10:05 | 59.83068 | 30.10320 | 1876 ft | 139 kts | 103° |
| 2026-05-07 10:05 | 59.82811 | 30.12159 | 1495 ft | 137 kts | 103° |
| 2026-05-07 10:05 | 59.82552 | 30.13965 | 1187 ft | 136 kts | 104° |
| 2026-05-07 10:06 | 59.82294 | 30.15771 | 1042 ft | 137 kts | 105° |
| 2026-05-07 10:06 | 59.82015 | 30.17578 | 839 ft | 136 kts | 106° |
| 2026-05-07 10:06 | 59.81757 | 30.19395 | 634 ft | 137 kts | 106° |
| 2026-05-07 10:06 | 59.81477 | 30.21216 | 410 ft | 138 kts | 106° |
| 2026-05-07 10:07 | 59.81211 | 30.23011 | 254 ft | 137 kts | 107° |
| 2026-05-07 10:07 | 59.80936 | 30.24827 | 98 ft | 137 kts | 107° |
| 2026-05-07 10:07 | 59.80695 | 30.26417 | 85 ft | 99 kts | 107° |
| 2026-05-07 10:07 | 59.80552 | 30.27393 | 85 ft | 42 kts | 106° |
| 2026-05-07 10:08 | 59.80497 | 30.27780 | 82 ft | 18 kts | 101° |
| 2026-05-07 10:08 | 59.80464 | 30.27873 | 78 ft | 6 kts | 180° |
| 2026-05-07 10:08 | 59.80436 | 30.27805 | 76 ft | 7 kts | 250° |
| 2026-05-07 10:08 | 59.80416 | 30.27678 | 87 ft | 12 kts | 252° |
| 2026-05-07 10:09 | 59.80390 | 30.27517 | 87 ft | 10 kts | 252° |
| 2026-05-07 10:09 | 59.80371 | 30.27399 | 88 ft | 9 kts | 252° |
| 2026-05-07 10:09 | 59.80351 | 30.27277 | 85 ft | 11 kts | 252° |
| 2026-05-07 10:09 | 59.80355 | 30.27115 | 85 ft | 14 kts | 290° |
| 2026-05-07 10:10 | 59.80385 | 30.26937 | 85 ft | 8 kts | 282° |
| 2026-05-07 10:10 | 59.80338 | 30.26846 | 84 ft | 13 kts | 197° |
| 2026-05-07 10:10 | 59.80239 | 30.26788 | 85 ft | 16 kts | 197° |
| 2026-05-07 10:10 | 59.80144 | 30.26731 | 84 ft | 13 kts | 197° |
| 2026-05-07 10:11 | 59.80057 | 30.26680 | 84 ft | 12 kts | 197° |
| 2026-05-07 10:11 | 59.79989 | 30.26639 | 85 ft | 10 kts | 197° |
| 2026-05-07 10:11 | 59.79924 | 30.26603 | 87 ft | 6 kts | 187° |
| 2026-05-07 10:11 | 59.79903 | 30.26649 | 88 ft | 5 kts | 114° |
| 2026-05-07 10:12 | 59.79894 | 30.26690 | 87 ft | 2 kts | 112° |
| 2026-05-07 10:12 | 59.79893 | 30.26694 | 87 ft | 0 kts | 112° |